This is the latest recevied weather packets stored in our database for station/object KO4APQ. If no packets are shown the sender has not sent any weather packets the latest 10 day(s).
| Time | Temp. | Humidity | Pressure | Rain* | Wind** | Luminosity | Snow |
|---|---|---|---|---|---|---|---|
| 1777668361 | 19.44° C | 50% | 1013.4 hPa | 0 mm | - | 385 W/m² | - |
| 1777668057 | 20° C | 48% | 1013.3 hPa | 0 mm | - | 326 W/m² | - |
| 1777667754 | 20° C | 49% | 1013.5 hPa | 0 mm | - | 425 W/m² | - |
| 1777667451 | 19.44° C | 54% | 1013.4 hPa | 0 mm | - | 361 W/m² | - |
| 1777667148 | 19.44° C | 53% | 1013.5 hPa | 0 mm | - | 396 W/m² | - |
| 1777666845 | 18.89° C | 54% | 1013.6 hPa | 0 mm | - | 442 W/m² | - |
| 1777666542 | 18.89° C | 52% | 1013.6 hPa | 0 mm | - | 389 W/m² | - |
| 1777666238 | 18.89° C | 51% | 1013.6 hPa | 0 mm | - | 414 W/m² | - |
| 1777665936 | 18.89° C | 50% | 1013.6 hPa | 0 mm | - | 359 W/m² | - |
| 1777665633 | 18.89° C | 51% | 1013.6 hPa | 0 mm | - | 330 W/m² | - |
| 1777665330 | 19.44° C | 50% | 1013.6 hPa | 0 mm | - | 333 W/m² | - |
| 1777665025 | 19.44° C | 52% | 1013.6 hPa | 0 mm | - | 465 W/m² | - |
| 1777664721 | 18.89° C | 52% | 1014 hPa | 0 mm | - | 477 W/m² | - |
| 1777664417 | 18.89° C | 51% | 1013.9 hPa | 0 mm | - | 470 W/m² | - |
| 1777664115 | 18.89° C | 50% | 1014 hPa | 0 mm | - | 397 W/m² | - |
| 1777663814 | 18.89° C | 50% | 1014.3 hPa | 0 mm | - | 440 W/m² | - |
| 1777663510 | 18.89° C | 49% | 1014.1 hPa | 0 mm | - | 504 W/m² | - |
| 1777663208 | 18.33° C | 49% | 1014.2 hPa | 0 mm | - | 592 W/m² | - |
| 1777662905 | 18.89° C | 48% | 1014.4 hPa | 0 mm | - | 530 W/m² | - |
| 1777662602 | 18.33° C | 50% | 1014.5 hPa | 0 mm | - | 661 W/m² | - |
| 1777662297 | 18.33° C | 49% | 1014.6 hPa | 0 mm | - | 491 W/m² | - |
| 1777661993 | 18.33° C | 47% | 1014.4 hPa | 0 mm | - | 546 W/m² | - |
| 1777661689 | 18.33° C | 47% | 1014.6 hPa | 0 mm | - | 602 W/m² | - |
| 1777661385 | 18.33° C | 49% | 1014.8 hPa | 0 mm | - | 428 W/m² | - |
| 1777661082 | 18.33° C | 48% | 1014.7 hPa | 0 mm | - | 400 W/m² | - |
* Rain latest hour (hover to see other rain measurements)
** Current wind speed in m/s (hover to see current wind gust speed)